createdAt,value
2022-09-30T00:00:15.693Z,0.00
2022-09-30T00:01:15.664Z,0.00
2022-09-30T00:02:15.707Z,0.00
2022-09-30T00:03:15.836Z,0.00
2022-09-30T00:04:15.718Z,0.00
2022-09-30T00:05:15.642Z,0.00
2022-09-30T00:06:15.636Z,0.00
2022-09-30T00:07:15.608Z,0.00
2022-09-30T00:08:15.600Z,0.00
2022-09-30T00:09:15.692Z,0.00
2022-09-30T00:10:15.585Z,0.00
2022-09-30T00:11:15.576Z,0.00
2022-09-30T00:12:15.545Z,0.00
2022-09-30T00:13:15.536Z,0.00
2022-09-30T00:14:15.543Z,0.00
2022-09-30T00:15:15.515Z,0.00
2022-09-30T00:16:15.647Z,0.00
2022-09-30T00:17:15.489Z,0.00
2022-09-30T00:18:15.483Z,0.00
2022-09-30T00:19:15.558Z,0.00
2022-09-30T00:20:15.466Z,0.00
2022-09-30T00:21:15.445Z,0.00
2022-09-30T00:22:15.437Z,0.00
2022-09-30T00:23:15.426Z,0.00
2022-09-30T00:24:15.449Z,0.00
2022-09-30T00:25:15.416Z,0.00
2022-09-30T00:26:15.452Z,0.00
2022-09-30T00:27:15.377Z,0.00
2022-09-30T00:28:15.427Z,0.00
2022-09-30T00:29:15.437Z,0.00
2022-09-30T00:30:15.417Z,0.00
2022-09-30T00:31:15.416Z,0.00
2022-09-30T00:32:15.788Z,0.00
2022-09-30T00:33:15.333Z,0.00
2022-09-30T00:34:15.378Z,0.00
2022-09-30T00:35:19.299Z,0.00
2022-09-30T00:36:16.288Z,0.00
2022-09-30T00:37:15.281Z,0.00
2022-09-30T00:38:15.267Z,0.00
2022-09-30T00:39:15.258Z,0.00
2022-09-30T00:40:15.248Z,0.00
2022-09-30T00:41:15.229Z,0.00
2022-09-30T00:42:15.221Z,0.00
2022-09-30T00:43:15.208Z,0.00
2022-09-30T00:44:15.220Z,0.00
2022-09-30T00:45:15.180Z,0.00
2022-09-30T00:46:15.205Z,0.00
2022-09-30T00:47:15.214Z,0.00
2022-09-30T00:48:15.158Z,0.00
2022-09-30T00:49:15.158Z,0.00
2022-09-30T00:50:15.141Z,0.00
2022-09-30T00:51:15.141Z,0.00
2022-09-30T00:52:15.221Z,0.00
2022-09-30T00:53:15.100Z,0.00
2022-09-30T00:54:15.100Z,0.00
2022-09-30T00:55:15.073Z,0.00
2022-09-30T00:56:15.154Z,0.00
2022-09-30T00:57:15.059Z,0.00
2022-09-30T00:58:15.062Z,0.00
2022-09-30T00:59:15.149Z,0.00
2022-09-30T01:00:15.083Z,0.00
2022-09-30T01:01:15.102Z,0.00
2022-09-30T01:02:15.086Z,0.00
2022-09-30T01:03:14.991Z,0.00
2022-09-30T01:04:14.991Z,0.00
2022-09-30T01:05:14.962Z,0.00
2022-09-30T01:06:14.985Z,0.00
2022-09-30T01:07:14.960Z,0.00
2022-09-30T01:08:14.972Z,0.00
2022-09-30T01:09:15.044Z,0.00
2022-09-30T01:10:14.934Z,0.00
2022-09-30T01:11:14.902Z,0.00
2022-09-30T01:12:14.894Z,0.00
2022-09-30T01:13:14.893Z,0.00
2022-09-30T01:14:14.885Z,0.00
2022-09-30T01:15:14.854Z,0.00
2022-09-30T01:16:14.890Z,0.00
2022-09-30T01:17:14.833Z,0.00
2022-09-30T01:18:14.873Z,0.00
2022-09-30T01:19:14.823Z,0.00
2022-09-30T01:20:14.804Z,0.00
2022-09-30T01:21:14.791Z,0.00
2022-09-30T01:22:14.784Z,0.00
2022-09-30T01:23:14.806Z,0.00
2022-09-30T01:24:14.785Z,0.00
2022-09-30T01:25:14.757Z,0.00
2022-09-30T01:26:14.778Z,0.00
2022-09-30T01:27:14.724Z,0.00
2022-09-30T01:28:14.724Z,0.00
2022-09-30T01:29:14.714Z,0.00
2022-09-30T01:30:14.731Z,0.00
2022-09-30T01:31:14.740Z,0.00
2022-09-30T01:32:14.688Z,0.00
2022-09-30T01:33:14.654Z,0.00
2022-09-30T01:34:14.684Z,0.00
2022-09-30T01:35:14.636Z,0.00
2022-09-30T01:36:14.636Z,0.00
2022-09-30T01:37:14.616Z,0.00
2022-09-30T01:38:14.656Z,0.00
2022-09-30T01:39:14.646Z,0.00
2022-09-30T01:40:14.594Z,0.00
2022-09-30T01:41:14.576Z,0.00
2022-09-30T01:42:14.572Z,0.00
2022-09-30T01:43:14.554Z,0.00
2022-09-30T01:44:14.557Z,0.00
2022-09-30T01:45:14.526Z,0.00
2022-09-30T01:46:14.579Z,0.00
2022-09-30T01:47:14.517Z,0.00
2022-09-30T01:48:14.509Z,0.00
2022-09-30T01:49:14.549Z,0.00
2022-09-30T01:50:14.488Z,0.00
2022-09-30T01:51:14.457Z,0.00
2022-09-30T01:52:14.460Z,0.00
2022-09-30T01:53:14.439Z,0.00
2022-09-30T01:54:14.459Z,0.00
2022-09-30T01:55:14.427Z,0.00
2022-09-30T01:56:14.418Z,0.00
2022-09-30T01:57:14.399Z,0.00
2022-09-30T01:58:14.398Z,0.00
2022-09-30T01:59:14.574Z,0.00
2022-09-30T02:00:14.389Z,0.00
2022-09-30T02:01:14.393Z,0.00
2022-09-30T02:02:14.360Z,0.00
2022-09-30T02:03:14.331Z,0.00
2022-09-30T02:04:14.339Z,0.00
2022-09-30T02:05:14.319Z,0.00
2022-09-30T02:06:14.350Z,0.00
2022-09-30T02:07:14.500Z,0.00
2022-09-30T02:08:14.280Z,0.00
2022-09-30T02:09:14.334Z,0.00
2022-09-30T02:10:14.263Z,0.00
2022-09-30T02:11:14.260Z,0.00
2022-09-30T02:12:14.269Z,0.00
2022-09-30T02:13:14.255Z,0.00
2022-09-30T02:14:14.249Z,0.00
2022-09-30T02:15:14.370Z,0.00
2022-09-30T02:16:14.251Z,0.00
2022-09-30T02:17:14.192Z,0.00
2022-09-30T02:18:14.189Z,0.00
2022-09-30T02:19:14.180Z,0.00
2022-09-30T02:20:14.233Z,0.00
2022-09-30T02:21:14.139Z,0.00
2022-09-30T02:22:14.154Z,0.00
2022-09-30T02:23:14.272Z,0.00
2022-09-30T02:24:14.110Z,0.00
2022-09-30T02:25:14.100Z,0.00
2022-09-30T02:26:14.082Z,0.00
2022-09-30T02:27:14.082Z,0.00
2022-09-30T02:28:14.072Z,0.00
2022-09-30T02:29:14.081Z,0.00
2022-09-30T02:30:14.124Z,0.00
2022-09-30T02:31:14.260Z,0.00
2022-09-30T02:32:14.057Z,0.00
2022-09-30T02:33:14.005Z,0.00
2022-09-30T02:34:14.022Z,0.00
2022-09-30T02:35:13.993Z,0.00
2022-09-30T02:36:13.993Z,0.00
2022-09-30T02:37:13.970Z,0.00
2022-09-30T02:38:13.996Z,0.00
2022-09-30T02:39:14.215Z,0.00
2022-09-30T02:40:14.292Z,0.00
2022-09-30T02:41:13.938Z,0.00
2022-09-30T02:42:13.988Z,0.00
2022-09-30T02:43:13.906Z,0.00
2022-09-30T02:44:14.004Z,0.00
2022-09-30T02:45:13.884Z,0.00
2022-09-30T02:46:13.910Z,0.00
2022-09-30T02:47:13.908Z,0.00
2022-09-30T02:48:13.875Z,0.00
2022-09-30T02:49:13.882Z,0.00
2022-09-30T02:50:13.814Z,0.00
2022-09-30T02:51:13.823Z,0.00
2022-09-30T02:52:13.794Z,0.00
2022-09-30T02:53:13.794Z,0.00
2022-09-30T02:54:13.814Z,0.00
2022-09-30T02:55:13.869Z,0.00
2022-09-30T02:56:13.770Z,0.00
2022-09-30T02:57:13.753Z,0.00
2022-09-30T02:58:13.819Z,0.00
2022-09-30T02:59:13.800Z,0.00
2022-09-30T03:00:13.726Z,0.00
2022-09-30T03:01:13.779Z,0.00
2022-09-30T03:02:13.758Z,0.00
2022-09-30T03:03:13.864Z,0.00
2022-09-30T03:04:13.684Z,0.00
2022-09-30T03:05:13.665Z,0.00
2022-09-30T03:06:13.674Z,0.00
2022-09-30T03:07:13.648Z,0.00
2022-09-30T03:08:13.639Z,0.00
2022-09-30T03:09:13.745Z,0.00
2022-09-30T03:10:13.767Z,0.00
2022-09-30T03:11:13.594Z,0.00
2022-09-30T03:12:13.595Z,0.00
2022-09-30T03:13:13.623Z,0.00
2022-09-30T03:14:13.569Z,0.00
2022-09-30T03:15:13.568Z,0.00
2022-09-30T03:16:14.152Z,0.00
2022-09-30T03:17:13.537Z,0.00
2022-09-30T03:18:13.516Z,0.00
2022-09-30T03:19:13.527Z,0.00
2022-09-30T03:20:13.498Z,0.00
2022-09-30T03:21:13.555Z,0.00
2022-09-30T03:22:13.520Z,0.00
2022-09-30T03:23:13.467Z,0.00
2022-09-30T03:24:13.488Z,0.00
2022-09-30T03:25:13.453Z,0.00
2022-09-30T03:26:13.450Z,0.00
2022-09-30T03:27:13.416Z,0.00
2022-09-30T03:28:13.491Z,0.00
2022-09-30T03:29:13.398Z,0.00
2022-09-30T03:30:13.385Z,0.00
2022-09-30T03:31:13.398Z,0.00
2022-09-30T03:32:13.479Z,0.00
2022-09-30T03:33:13.348Z,0.00
2022-09-30T03:34:13.360Z,0.00
2022-09-30T03:35:13.341Z,0.00
2022-09-30T03:36:13.330Z,0.00
2022-09-30T03:37:13.306Z,0.00
2022-09-30T03:38:13.300Z,0.00
2022-09-30T03:39:13.309Z,0.00
2022-09-30T03:40:13.288Z,0.00
2022-09-30T03:41:13.268Z,0.00
2022-09-30T03:42:13.250Z,0.00
2022-09-30T03:43:13.263Z,0.00
2022-09-30T03:44:13.268Z,0.00
2022-09-30T03:45:13.219Z,0.00
2022-09-30T03:46:13.261Z,0.00
2022-09-30T03:47:13.200Z,0.00
2022-09-30T03:48:13.352Z,0.00
2022-09-30T03:49:13.191Z,0.00
2022-09-30T03:50:13.189Z,0.00
2022-09-30T03:51:13.159Z,0.00
2022-09-30T03:52:13.151Z,0.00
2022-09-30T03:53:13.131Z,0.00
2022-09-30T03:54:13.129Z,0.00
2022-09-30T03:55:13.122Z,0.00
2022-09-30T03:56:13.119Z,0.00
2022-09-30T03:57:13.091Z,0.00
2022-09-30T03:58:13.168Z,0.00
2022-09-30T03:59:13.082Z,0.00
2022-09-30T04:00:13.152Z,0.00
2022-09-30T04:01:13.076Z,0.00
2022-09-30T04:02:13.120Z,0.00
2022-09-30T04:03:13.022Z,0.00
2022-09-30T04:04:13.122Z,0.00
2022-09-30T04:05:13.014Z,0.00
2022-09-30T04:06:13.001Z,0.00
2022-09-30T04:07:12.981Z,0.00
2022-09-30T04:08:12.979Z,0.00
2022-09-30T04:09:13.011Z,0.00
2022-09-30T04:10:13.004Z,0.00
2022-09-30T04:11:12.938Z,0.00
2022-09-30T04:12:12.963Z,0.00
2022-09-30T04:13:12.914Z,0.00
2022-09-30T04:14:13.035Z,0.00
2022-09-30T04:15:12.892Z,0.00
2022-09-30T04:16:12.951Z,0.00
2022-09-30T04:17:12.880Z,0.00
2022-09-30T04:18:12.903Z,0.00
2022-09-30T04:19:12.863Z,0.00
2022-09-30T04:20:12.864Z,0.00
2022-09-30T04:21:12.822Z,0.00
2022-09-30T04:22:12.836Z,0.00
2022-09-30T04:23:12.822Z,0.00
2022-09-30T04:24:12.877Z,0.00
2022-09-30T04:25:12.804Z,0.00
2022-09-30T04:26:12.824Z,0.00
2022-09-30T04:27:12.762Z,0.00
2022-09-30T04:28:12.824Z,0.00
2022-09-30T04:29:12.753Z,0.00
2022-09-30T04:30:12.794Z,0.00
2022-09-30T04:31:12.784Z,0.00
2022-09-30T04:32:12.767Z,0.00
2022-09-30T04:33:12.695Z,0.00
2022-09-30T04:34:12.732Z,0.00
2022-09-30T04:35:12.683Z,0.00
2022-09-30T04:36:12.685Z,0.00
2022-09-30T04:37:12.652Z,0.00
2022-09-30T04:38:12.711Z,0.00
2022-09-30T04:39:12.645Z,0.00
2022-09-30T04:40:12.655Z,0.00
2022-09-30T04:41:12.629Z,0.00
2022-09-30T04:42:12.625Z,0.00
2022-09-30T04:43:12.587Z,0.00
2022-09-30T04:44:12.596Z,0.00
2022-09-30T04:45:12.565Z,0.00
2022-09-30T04:46:12.626Z,0.00
2022-09-30T04:47:12.551Z,0.00
2022-09-30T04:48:12.536Z,0.00
2022-09-30T04:49:12.543Z,0.00
2022-09-30T04:50:12.518Z,0.00
2022-09-30T04:51:12.496Z,0.00
2022-09-30T04:52:12.497Z,0.00
2022-09-30T04:53:12.477Z,0.00
2022-09-30T04:54:12.503Z,0.00
2022-09-30T04:55:12.467Z,0.00
2022-09-30T04:56:12.465Z,0.00
2022-09-30T04:57:12.457Z,0.00
2022-09-30T04:58:12.428Z,0.00
2022-09-30T04:59:12.426Z,0.00
2022-09-30T05:00:12.430Z,0.00
2022-09-30T05:01:12.458Z,0.00
2022-09-30T05:02:12.457Z,0.00
2022-09-30T05:03:12.377Z,0.00
2022-09-30T05:04:12.373Z,0.00
2022-09-30T05:05:12.359Z,0.00
2022-09-30T05:06:12.339Z,0.00
2022-09-30T05:07:12.336Z,0.00
2022-09-30T05:08:12.325Z,0.00
2022-09-30T05:09:12.374Z,0.00
2022-09-30T05:10:12.289Z,0.00
2022-09-30T05:11:12.287Z,0.00
2022-09-30T05:12:12.282Z,0.00
2022-09-30T05:13:12.268Z,0.00
2022-09-30T05:14:12.331Z,0.00
2022-09-30T05:15:12.258Z,0.00
2022-09-30T05:16:12.325Z,0.00
2022-09-30T05:17:12.241Z,0.00
2022-09-30T05:18:12.230Z,0.00
2022-09-30T05:19:12.206Z,0.00
2022-09-30T05:20:12.236Z,5.62
2022-09-30T05:21:12.180Z,5.62
2022-09-30T05:22:12.169Z,5.62
2022-09-30T05:23:12.157Z,5.62
2022-09-30T05:24:12.230Z,5.62
2022-09-30T05:25:12.149Z,5.62
2022-09-30T05:26:12.926Z,11.25
2022-09-30T05:27:12.108Z,11.25
2022-09-30T05:28:12.136Z,11.25
2022-09-30T05:29:12.089Z,11.25
2022-09-30T05:30:12.110Z,16.88
2022-09-30T05:31:12.257Z,16.88
2022-09-30T05:32:12.080Z,16.88
2022-09-30T05:33:12.050Z,16.88
2022-09-30T05:34:12.049Z,22.50
2022-09-30T05:35:12.037Z,22.50
2022-09-30T05:36:12.061Z,22.50
2022-09-30T05:37:12.051Z,28.12
2022-09-30T05:38:12.106Z,28.12
2022-09-30T05:39:11.986Z,33.75
2022-09-30T05:40:12.000Z,33.75
2022-09-30T05:41:11.971Z,33.75
2022-09-30T05:42:14.018Z,39.38
2022-09-30T05:43:11.942Z,39.38
2022-09-30T05:44:11.930Z,45.00
2022-09-30T05:45:11.947Z,45.00
2022-09-30T05:46:11.956Z,50.62
2022-09-30T05:47:12.004Z,50.62
2022-09-30T05:48:11.892Z,50.62
2022-09-30T05:49:11.871Z,56.25
2022-09-30T05:50:11.948Z,56.25
2022-09-30T05:51:11.853Z,61.88
2022-09-30T05:52:11.873Z,61.88
2022-09-30T05:53:11.852Z,67.50
2022-09-30T05:54:11.834Z,67.50
2022-09-30T05:55:11.823Z,73.12
2022-09-30T05:56:11.812Z,73.12
2022-09-30T05:57:11.801Z,78.75
2022-09-30T05:58:11.813Z,78.75
2022-09-30T05:59:11.772Z,84.38
2022-09-30T06:00:11.803Z,90.00
2022-09-30T06:01:13.837Z,90.00
2022-09-30T06:02:11.822Z,95.62
2022-09-30T06:03:11.788Z,95.62
2022-09-30T06:04:11.712Z,101.25
2022-09-30T06:05:11.714Z,101.25
2022-09-30T06:06:11.683Z,106.88
2022-09-30T06:07:11.673Z,112.50
2022-09-30T06:08:11.663Z,112.50
2022-09-30T06:09:11.702Z,118.12
2022-09-30T06:10:11.713Z,123.75
2022-09-30T06:11:11.634Z,129.38
2022-09-30T06:12:11.712Z,129.38
2022-09-30T06:13:11.625Z,135.00
2022-09-30T06:14:11.654Z,135.00
2022-09-30T06:15:11.604Z,135.00
2022-09-30T06:16:11.781Z,140.62
2022-09-30T06:17:11.576Z,146.25
2022-09-30T06:18:14.704Z,146.25
2022-09-30T06:19:12.577Z,157.50
2022-09-30T06:20:11.545Z,163.12
2022-09-30T06:21:11.644Z,163.12
2022-09-30T06:22:11.515Z,180.00
2022-09-30T06:23:11.505Z,163.12
2022-09-30T06:24:11.508Z,185.62
2022-09-30T06:25:11.486Z,180.00
2022-09-30T06:26:11.502Z,185.62
2022-09-30T06:27:11.454Z,191.25
2022-09-30T06:28:11.466Z,191.25
2022-09-30T06:29:11.435Z,208.12
2022-09-30T06:30:11.519Z,202.50
2022-09-30T06:31:11.652Z,208.12
2022-09-30T06:32:11.417Z,202.50
2022-09-30T06:33:11.390Z,208.12
2022-09-30T06:34:11.376Z,208.12
2022-09-30T06:35:11.421Z,213.75
2022-09-30T06:36:11.438Z,219.38
2022-09-30T06:37:11.346Z,230.62
2022-09-30T06:38:11.343Z,225.00
2022-09-30T06:39:13.655Z,230.62
2022-09-30T06:40:11.372Z,225.00
2022-09-30T06:41:11.308Z,241.88
2022-09-30T06:42:11.288Z,236.25
2022-09-30T06:43:11.287Z,247.50
2022-09-30T06:44:11.302Z,247.50
2022-09-30T06:45:16.127Z,236.25
2022-09-30T06:46:17.722Z,270.00
2022-09-30T06:47:21.724Z,309.38
2022-09-30T06:48:12.274Z,286.88
2022-09-30T06:49:13.910Z,258.75
2022-09-30T06:50:21.211Z,247.50
2022-09-30T06:51:12.187Z,253.12
2022-09-30T06:52:11.239Z,258.75
2022-09-30T06:53:14.999Z,275.62
2022-09-30T06:54:11.171Z,292.50
2022-09-30T06:55:11.172Z,337.50
2022-09-30T06:56:11.144Z,320.62
2022-09-30T06:57:11.140Z,343.12
2022-09-30T06:58:11.211Z,382.50
2022-09-30T06:59:11.109Z,388.12
2022-09-30T07:00:11.139Z,641.25
2022-09-30T07:01:11.301Z,686.25
2022-09-30T07:02:11.211Z,646.88
2022-09-30T07:03:11.083Z,607.50
2022-09-30T07:04:11.050Z,556.88
2022-09-30T07:05:11.051Z,613.12
2022-09-30T07:06:11.076Z,703.12
2022-09-30T07:07:11.021Z,736.88
2022-09-30T07:08:11.025Z,900.00
2022-09-30T07:09:11.074Z,781.88
2022-09-30T07:10:10.992Z,1063.12
2022-09-30T07:11:10.979Z,1158.75
2022-09-30T07:12:10.963Z,1119.38
2022-09-30T07:13:10.975Z,1192.50
2022-09-30T07:14:10.942Z,1237.50
2022-09-30T07:15:13.705Z,1299.38
2022-09-30T07:16:11.039Z,950.62
2022-09-30T07:17:15.163Z,1108.12
2022-09-30T07:18:11.001Z,1361.25
2022-09-30T07:19:11.012Z,1344.38
2022-09-30T07:20:10.986Z,1395.00
2022-09-30T07:21:10.865Z,1440.00
2022-09-30T07:22:10.911Z,1496.25
2022-09-30T07:23:10.874Z,1575.00
2022-09-30T07:24:10.873Z,1276.88
2022-09-30T07:25:10.864Z,495.00
2022-09-30T07:26:10.813Z,360.00
2022-09-30T07:27:10.804Z,354.38
2022-09-30T07:28:10.923Z,826.88
2022-09-30T07:29:10.777Z,1490.62
2022-09-30T07:30:18.129Z,1631.25
2022-09-30T07:31:31.343Z,1395.00
2022-09-30T07:32:11.819Z,1215.00
2022-09-30T07:33:10.725Z,1012.50
2022-09-30T07:34:10.726Z,1153.12
2022-09-30T07:35:10.729Z,1636.88
2022-09-30T07:36:10.723Z,1760.62
2022-09-30T07:37:10.688Z,1794.38
2022-09-30T07:38:10.677Z,1788.75
2022-09-30T07:39:10.679Z,1800.00
2022-09-30T07:40:10.906Z,1811.25
2022-09-30T07:41:10.647Z,1794.38
2022-09-30T07:42:10.659Z,1861.88
2022-09-30T07:43:10.619Z,1710.00
2022-09-30T07:44:10.661Z,787.50
2022-09-30T07:45:10.618Z,343.12
2022-09-30T07:46:11.117Z,343.12
2022-09-30T07:47:10.590Z,348.75
2022-09-30T07:48:10.608Z,348.75
2022-09-30T07:49:10.550Z,348.75
2022-09-30T07:50:10.640Z,348.75
2022-09-30T07:51:10.540Z,354.38
2022-09-30T07:52:10.532Z,354.38
2022-09-30T07:53:10.511Z,354.38
2022-09-30T07:54:10.533Z,354.38
2022-09-30T08:13:44.870Z,388.12
2022-09-30T08:14:44.875Z,388.12
2022-09-30T08:15:44.806Z,393.75
2022-09-30T08:16:44.837Z,393.75
2022-09-30T08:17:44.798Z,399.38
2022-09-30T08:18:44.778Z,393.75
2022-09-30T08:19:44.842Z,393.75
2022-09-30T08:20:44.751Z,393.75
2022-09-30T08:21:44.819Z,393.75
2022-09-30T08:22:44.738Z,393.75
2022-09-30T08:23:44.721Z,393.75
2022-09-30T08:24:44.721Z,393.75
2022-09-30T08:25:44.745Z,393.75
2022-09-30T08:26:44.738Z,399.38
2022-09-30T08:27:44.674Z,399.38
2022-09-30T08:28:44.673Z,399.38
2022-09-30T08:30:04.199Z,399.38
2022-09-30T08:30:45.641Z,399.38
2022-09-30T08:31:44.702Z,405.00
2022-09-30T08:32:44.623Z,405.00
2022-09-30T08:33:44.623Z,405.00
2022-09-30T08:34:44.625Z,405.00
2022-09-30T08:35:44.606Z,410.62
2022-09-30T08:36:44.671Z,410.62
2022-09-30T08:37:44.568Z,410.62
2022-09-30T08:38:44.554Z,410.62
2022-09-30T08:39:44.543Z,405.00
2022-09-30T08:40:44.535Z,405.00
2022-09-30T08:41:44.528Z,405.00
2022-09-30T08:42:50.601Z,405.00
2022-09-30T08:43:45.652Z,405.00
2022-09-30T08:44:51.616Z,405.00
2022-09-30T08:45:44.547Z,405.00
2022-09-30T08:46:44.474Z,405.00
2022-09-30T08:47:44.455Z,399.38
2022-09-30T08:48:44.446Z,399.38
2022-09-30T08:49:44.467Z,399.38
2022-09-30T08:50:44.426Z,399.38
2022-09-30T08:51:44.416Z,405.00
2022-09-30T08:52:49.173Z,405.00
2022-09-30T08:53:45.503Z,405.00
2022-09-30T08:54:44.386Z,405.00
2022-09-30T08:55:44.376Z,405.00
2022-09-30T08:56:44.435Z,405.00
2022-09-30T08:57:47.353Z,405.00
2022-09-30T08:58:44.337Z,405.00
2022-09-30T08:59:44.338Z,405.00
2022-09-30T09:00:44.348Z,405.00
2022-09-30T09:01:44.310Z,405.00
2022-09-30T09:02:44.320Z,405.00
2022-09-30T09:03:44.288Z,405.00
2022-09-30T09:04:44.308Z,405.00
2022-09-30T09:05:47.374Z,405.00
2022-09-30T09:06:45.249Z,405.00
2022-09-30T09:07:44.273Z,405.00
2022-09-30T09:08:44.227Z,405.00
2022-09-30T09:09:44.222Z,405.00
2022-09-30T09:10:44.201Z,405.00
2022-09-30T09:11:44.192Z,410.62
2022-09-30T09:12:44.178Z,410.62
2022-09-30T09:13:44.180Z,410.62
2022-09-30T09:14:44.273Z,416.25
2022-09-30T09:15:44.160Z,472.50
2022-09-30T09:16:44.174Z,1586.25
2022-09-30T09:17:50.282Z,2784.38
2022-09-30T09:18:45.114Z,2700.00
2022-09-30T09:19:44.130Z,2548.12
2022-09-30T09:20:44.090Z,2576.25
2022-09-30T09:21:44.082Z,2548.12
2022-09-30T09:22:44.064Z,2542.50
2022-09-30T09:23:44.063Z,2536.88
2022-09-30T09:24:44.062Z,2666.25
2022-09-30T09:25:44.043Z,2643.75
2022-09-30T09:26:44.025Z,2576.25
2022-09-30T09:27:44.111Z,2750.62
2022-09-30T09:28:44.003Z,2823.75
2022-09-30T09:29:44.011Z,2626.88
2022-09-30T09:30:43.976Z,2593.12
2022-09-30T09:31:44.022Z,2632.50
2022-09-30T09:32:43.956Z,2677.50
2022-09-30T09:33:43.957Z,2739.38
2022-09-30T09:34:43.987Z,2902.50
2022-09-30T09:35:43.937Z,2953.12
2022-09-30T09:36:43.910Z,3099.38
2022-09-30T09:37:44.028Z,3234.38
2022-09-30T09:38:43.890Z,3150.00
2022-09-30T09:39:43.940Z,2981.25
2022-09-30T09:40:43.870Z,2947.50
2022-09-30T09:41:43.870Z,3116.25
2022-09-30T09:42:43.853Z,3290.62
2022-09-30T09:43:43.871Z,3453.75
2022-09-30T09:44:43.851Z,3543.75
2022-09-30T09:45:43.888Z,3391.88
2022-09-30T09:46:43.804Z,3442.50
2022-09-30T09:47:43.814Z,3577.50
2022-09-30T09:48:43.782Z,3656.25
2022-09-30T09:49:43.894Z,3836.25
2022-09-30T09:50:43.765Z,3948.75
2022-09-30T09:51:44.052Z,3864.38
2022-09-30T09:52:43.745Z,3628.12
2022-09-30T09:53:43.737Z,3487.50
2022-09-30T09:54:43.769Z,3622.50
2022-09-30T09:55:43.737Z,3723.75
2022-09-30T09:56:43.700Z,3583.12
2022-09-30T09:57:43.687Z,3442.50
2022-09-30T09:58:43.730Z,3628.12
2022-09-30T09:59:43.811Z,3870.00
2022-09-30T10:00:43.784Z,3802.50
2022-09-30T10:01:43.752Z,3684.38
2022-09-30T10:02:43.651Z,3453.75
2022-09-30T10:03:43.630Z,3616.88
2022-09-30T10:04:43.641Z,3532.50
2022-09-30T10:05:43.612Z,3301.88
2022-09-30T10:06:43.592Z,3189.38
2022-09-30T10:07:43.608Z,3290.62
2022-09-30T10:08:43.573Z,3301.88
2022-09-30T10:09:43.575Z,3228.75
2022-09-30T10:10:43.560Z,3195.00
2022-09-30T10:11:43.551Z,3189.38
2022-09-30T10:12:43.585Z,3211.88
2022-09-30T10:13:43.525Z,3403.12
2022-09-30T10:14:43.528Z,3386.25
2022-09-30T10:15:43.547Z,3138.75
2022-09-30T10:16:43.495Z,3043.12
2022-09-30T10:17:43.487Z,3020.62
2022-09-30T10:18:43.469Z,2947.50
2022-09-30T10:19:43.490Z,2930.62
2022-09-30T10:20:43.516Z,2925.00
2022-09-30T10:21:43.441Z,2947.50
2022-09-30T10:22:43.433Z,3043.12
2022-09-30T10:23:43.422Z,3245.62
2022-09-30T10:24:43.433Z,3341.25
2022-09-30T10:25:43.403Z,3346.88
2022-09-30T10:26:46.168Z,3577.50
2022-09-30T10:27:44.434Z,3684.38
2022-09-30T10:28:43.396Z,3723.75
2022-09-30T10:29:43.383Z,3881.25
2022-09-30T10:30:43.344Z,3943.12
2022-09-30T10:31:43.426Z,4168.12
2022-09-30T10:32:43.326Z,4123.12
2022-09-30T10:33:43.322Z,3909.38
2022-09-30T10:34:43.325Z,4185.00
2022-09-30T10:35:43.299Z,4342.50
2022-09-30T10:36:43.305Z,4016.25
2022-09-30T10:37:43.287Z,3757.50
2022-09-30T10:38:43.300Z,3605.62
2022-09-30T10:39:43.315Z,3706.88
2022-09-30T10:40:43.241Z,3796.88
2022-09-30T10:41:43.232Z,3785.62
2022-09-30T10:42:43.221Z,3780.00
2022-09-30T10:43:43.221Z,3571.88
2022-09-30T10:44:43.233Z,3723.75
2022-09-30T10:45:43.244Z,3853.12
2022-09-30T10:46:43.260Z,3937.50
2022-09-30T10:47:43.174Z,3808.12
2022-09-30T10:48:43.176Z,3943.12
2022-09-30T10:49:43.173Z,4055.62
2022-09-30T10:50:43.146Z,4106.25
2022-09-30T10:51:43.205Z,4477.50
2022-09-30T10:52:43.154Z,4156.88
2022-09-30T10:53:43.131Z,3740.62
2022-09-30T10:54:43.119Z,4156.88
2022-09-30T10:55:43.117Z,4213.12
2022-09-30T10:56:43.088Z,4021.88
2022-09-30T10:57:43.078Z,4145.62
2022-09-30T10:58:43.112Z,4038.75
2022-09-30T10:59:43.059Z,3898.12
2022-09-30T11:00:43.103Z,3948.75
2022-09-30T11:01:43.158Z,4151.25
2022-09-30T11:02:43.069Z,4111.88
2022-09-30T11:03:43.107Z,4246.88
2022-09-30T11:04:43.024Z,4066.88
2022-09-30T11:05:43.031Z,3870.00
2022-09-30T11:06:42.984Z,3836.25
2022-09-30T11:07:42.975Z,4145.62
2022-09-30T11:08:43.033Z,4044.38
2022-09-30T11:09:42.956Z,3892.50
2022-09-30T11:10:42.966Z,1366.88
2022-09-30T11:11:42.936Z,680.62
2022-09-30T11:12:42.927Z,3532.50
2022-09-30T11:13:42.927Z,3836.25
2022-09-30T11:14:42.918Z,4117.50
2022-09-30T11:15:42.908Z,4089.38
2022-09-30T11:16:42.906Z,3920.62
2022-09-30T11:17:42.879Z,1175.62
2022-09-30T11:18:42.937Z,652.50
2022-09-30T11:19:42.879Z,483.75
2022-09-30T11:20:42.851Z,511.88
2022-09-30T11:21:42.833Z,590.62
2022-09-30T11:22:42.821Z,669.38
2022-09-30T11:23:42.823Z,736.88
2022-09-30T11:24:42.802Z,528.75
2022-09-30T11:25:42.834Z,551.25
2022-09-30T11:26:42.867Z,618.75
2022-09-30T11:27:42.826Z,725.62
2022-09-30T11:28:42.763Z,945.00
2022-09-30T11:29:42.765Z,3290.62
2022-09-30T11:30:42.747Z,3886.88
2022-09-30T11:31:42.786Z,3965.62
2022-09-30T11:32:42.737Z,1119.38
2022-09-30T11:33:42.713Z,2958.75
2022-09-30T11:34:42.809Z,2075.62
2022-09-30T11:35:42.691Z,630.00
2022-09-30T11:36:43.170Z,455.62
2022-09-30T11:37:42.680Z,433.12
2022-09-30T11:38:49.704Z,455.62
2022-09-30T11:39:42.657Z,472.50
2022-09-30T11:40:42.638Z,483.75
2022-09-30T11:41:42.627Z,551.25
2022-09-30T11:42:42.618Z,2115.00
2022-09-30T11:43:42.608Z,585.00
2022-09-30T11:44:42.653Z,585.00
2022-09-30T11:45:42.628Z,697.50
2022-09-30T11:46:42.640Z,3892.50
2022-09-30T11:47:42.603Z,1310.62
2022-09-30T11:48:42.562Z,585.00
2022-09-30T11:49:42.568Z,551.25
2022-09-30T11:50:42.541Z,506.25
2022-09-30T11:51:42.517Z,500.62
2022-09-30T11:52:42.509Z,483.75
2022-09-30T11:53:42.503Z,466.88
2022-09-30T11:54:42.494Z,450.00
2022-09-30T11:55:42.480Z,455.62
2022-09-30T11:56:42.456Z,483.75
2022-09-30T11:57:42.457Z,511.88
2022-09-30T11:58:42.660Z,523.12
2022-09-30T11:59:42.445Z,663.75
2022-09-30T12:00:47.009Z,3178.12
2022-09-30T12:01:42.485Z,3706.88
2022-09-30T12:02:42.469Z,2953.12
2022-09-30T12:03:42.387Z,883.12
2022-09-30T12:04:42.398Z,3605.62
2022-09-30T12:05:42.373Z,742.50
2022-09-30T12:06:42.351Z,793.12
2022-09-30T12:07:42.343Z,3442.50
2022-09-30T12:08:42.330Z,3234.38
2022-09-30T12:09:42.319Z,3279.38
2022-09-30T12:10:42.334Z,3346.88
2022-09-30T12:11:42.302Z,3571.88
2022-09-30T12:12:42.293Z,3661.88
2022-09-30T12:13:42.281Z,3560.62
2022-09-30T12:14:42.278Z,3408.75
2022-09-30T12:15:42.273Z,3341.25
2022-09-30T12:16:42.642Z,3436.88
2022-09-30T12:17:42.249Z,3661.88
2022-09-30T12:18:42.243Z,1400.62
2022-09-30T12:19:42.227Z,1575.00
2022-09-30T12:20:42.226Z,736.88
2022-09-30T12:21:42.186Z,680.62
2022-09-30T12:22:42.177Z,658.12
2022-09-30T12:23:42.182Z,601.88
2022-09-30T12:24:42.177Z,534.38
2022-09-30T12:25:42.164Z,511.88
2022-09-30T12:26:42.168Z,545.62
2022-09-30T12:27:42.270Z,568.12
2022-09-30T12:28:42.115Z,568.12
2022-09-30T12:29:42.121Z,562.50
2022-09-30T12:30:42.100Z,590.62
2022-09-30T12:31:42.154Z,596.25
2022-09-30T12:32:42.071Z,551.25
2022-09-30T12:33:42.080Z,590.62
2022-09-30T12:34:42.072Z,748.12
2022-09-30T12:35:42.051Z,3504.38
2022-09-30T12:36:42.032Z,3369.38
2022-09-30T12:37:42.023Z,3375.00
2022-09-30T12:38:42.002Z,3521.25
2022-09-30T12:39:42.020Z,3526.88
2022-09-30T12:40:41.984Z,2998.12
2022-09-30T12:41:41.984Z,804.38
2022-09-30T12:42:41.966Z,3116.25
2022-09-30T12:43:41.957Z,748.12
2022-09-30T12:44:41.975Z,1985.62
2022-09-30T12:45:41.963Z,590.62
2022-09-30T12:46:41.918Z,500.62
2022-09-30T12:47:41.919Z,500.62
2022-09-30T12:48:41.898Z,551.25
2022-09-30T12:49:41.897Z,3088.12
2022-09-30T12:50:42.019Z,3459.38
2022-09-30T12:51:41.899Z,3577.50
2022-09-30T12:52:41.861Z,3448.12
2022-09-30T12:53:41.861Z,3459.38
2022-09-30T12:54:41.839Z,3453.75
2022-09-30T12:55:41.840Z,3318.75
2022-09-30T12:56:41.811Z,3211.88
2022-09-30T12:57:41.814Z,3144.38
2022-09-30T12:58:41.794Z,3234.38
2022-09-30T12:59:41.784Z,3307.50
2022-09-30T13:00:41.783Z,3105.00
2022-09-30T13:01:41.766Z,3121.88